Time,TemperatureF,DewpointF,PressureIn,WindDirection,WindDirectionDegrees,WindSpeedMPH,WindSpeedGustMPH,Humidity,HourlyPrecipIn,Conditions,Clouds,dailyrainin,SolarRadiationWatts/m^2,SoftwareType,DateUTC
2013-07-15 00:02:00,81.0,57.0,30.00,NE,36,7.0,11.0,43,-99.99,,,-99.99,0.000000,,2013-07-15 06:02:00,
2013-07-15 00:11:00,79.0,58.0,30.01,West,277,7.0,10.0,48,-99.99,,,-99.99,0.000000,,2013-07-15 06:11:00,
2013-07-15 00:22:00,79.0,57.0,30.01,WSW,256,8.0,14.0,45,-99.99,,,-99.99,0.000000,,2013-07-15 06:22:00,
2013-07-15 00:32:00,79.0,57.0,30.01,WSW,256,8.0,14.0,45,-99.99,,,-99.99,0.000000,,2013-07-15 06:32:00,
2013-07-15 00:42:00,79.0,56.0,30.01,WSW,255,11.0,20.0,43,-99.99,,,-99.99,0.000000,,2013-07-15 06:42:00,
2013-07-15 01:01:00,77.0,58.0,30.01,WSW,252,8.0,12.0,51,-99.99,,,-99.99,0.000000,,2013-07-15 07:01:00,
2013-07-15 01:11:00,76.0,60.0,30.01,South,182,3.0,7.0,57,-99.99,,,-99.99,0.000000,,2013-07-15 07:11:00,
2013-07-15 01:21:00,76.0,59.0,30.01,South,182,6.0,11.0,57,-99.99,,,-99.99,0.000000,,2013-07-15 07:21:00,
2013-07-15 01:32:00,76.0,59.0,30.01,South,182,6.0,11.0,57,-99.99,,,-99.99,0.000000,,2013-07-15 07:32:00,
2013-07-15 01:43:00,77.0,58.0,30.01,West,269,4.0,8.0,52,-99.99,,,-99.99,0.000000,,2013-07-15 07:43:00,
2013-07-15 02:01:00,75.0,62.0,30.01,NW,316,4.0,7.0,64,-99.99,,,-99.99,0.000000,,2013-07-15 08:01:00,
2013-07-15 02:11:00,75.0,61.0,30.01,North,349,5.0,9.0,62,-99.99,,,-99.99,0.000000,,2013-07-15 08:11:00,
2013-07-15 02:22:00,76.0,60.0,30.01,NNW,348,3.0,6.0,57,-99.99,,,-99.99,0.000000,,2013-07-15 08:22:00,
2013-07-15 02:32:00,76.0,60.0,30.01,NNW,348,3.0,6.0,57,-99.99,,,-99.99,0.000000,,2013-07-15 08:32:00,
2013-07-15 02:43:00,74.0,62.0,30.01,SW,220,3.0,6.0,65,-99.99,,,-99.99,0.000000,,2013-07-15 08:43:00,
2013-07-15 02:53:00,74.0,60.0,30.00,SW,225,3.0,5.0,61,-99.99,,,-99.99,0.000000,,2013-07-15 08:53:00,
2013-07-15 03:01:00,74.0,60.0,30.00,SW,225,3.0,5.0,61,-99.99,,,-99.99,0.000000,,2013-07-15 09:01:00,
2013-07-15 03:11:00,75.0,58.0,30.00,SW,230,2.0,5.0,55,-99.99,,,-99.99,0.000000,,2013-07-15 09:11:00,
2013-07-15 03:32:00,75.0,58.0,30.00,South,184,2.0,4.0,55,-99.99,,,-99.99,0.000000,,2013-07-15 09:32:00,
2013-07-15 03:43:00,75.0,59.0,29.99,WSW,240,3.0,6.0,55,-99.99,,,-99.99,0.000000,,2013-07-15 09:43:00,
2013-07-15 04:02:00,75.0,59.0,29.99,NW,314,1.0,4.0,57,-99.99,,,-99.99,0.000000,,2013-07-15 10:02:00,
2013-07-15 04:11:00,76.0,60.0,29.99,North,351,5.0,8.0,57,-99.99,,,-99.99,0.000000,,2013-07-15 10:11:00,
2013-07-15 04:22:00,75.0,59.0,29.99,NW,318,4.0,7.0,57,-99.99,,,-99.99,0.000000,,2013-07-15 10:22:00,
2013-07-15 04:32:00,75.0,59.0,29.99,NW,318,4.0,7.0,57,-99.99,,,-99.99,0.000000,,2013-07-15 10:32:00,
2013-07-15 04:43:00,74.0,60.0,30.00,West,261,3.0,7.0,61,-99.99,,,-99.99,0.000000,,2013-07-15 10:43:00,
2013-07-15 04:53:00,74.0,58.0,29.99,West,280,5.0,8.0,57,-99.99,,,-99.99,0.000000,,2013-07-15 10:53:00,
2013-07-15 05:01:00,74.0,58.0,29.99,West,280,5.0,8.0,57,-99.99,,,-99.99,0.000000,,2013-07-15 11:01:00,
2013-07-15 05:11:00,75.0,57.0,29.99,West,278,4.0,7.0,53,-99.99,,,-99.99,0.000000,,2013-07-15 11:11:00,
2013-07-15 05:22:00,74.0,59.0,29.99,East,83,4.0,7.0,57,-99.99,,,-99.99,0.000000,,2013-07-15 11:22:00,
2013-07-15 05:32:00,74.0,59.0,29.99,East,83,4.0,7.0,57,-99.99,,,-99.99,0.000000,,2013-07-15 11:32:00,
2013-07-15 05:42:00,74.0,59.0,30.00,East,94,3.0,7.0,60,-99.99,,,-99.99,0.000000,,2013-07-15 11:42:00,
2013-07-15 06:01:00,72.0,61.0,30.01,ESE,113,6.0,9.0,67,-99.99,,,-99.99,0.000000,,2013-07-15 12:01:00,
2013-07-15 06:11:00,71.0,61.0,30.01,South,187,4.0,8.0,72,-99.99,,,-99.99,0.000000,,2013-07-15 12:11:00,
2013-07-15 06:22:00,71.0,60.0,30.01,ESE,123,3.0,6.0,69,-99.99,,,-99.99,0.000000,,2013-07-15 12:22:00,
2013-07-15 06:32:00,71.0,60.0,30.01,ESE,123,3.0,6.0,69,-99.99,,,-99.99,0.000000,,2013-07-15 12:32:00,
2013-07-15 06:42:00,72.0,61.0,30.02,SE,130,10.0,15.0,68,-99.99,,,-99.99,1.390000,,2013-07-15 12:42:00,
2013-07-15 07:01:00,72.0,60.0,30.03,SE,141,10.0,14.0,65,-99.99,,,-99.99,8.370000,,2013-07-15 13:01:00,
2013-07-15 07:11:00,72.0,59.0,30.03,SSE,147,10.0,16.0,63,-99.99,,,-99.99,18.830000,,2013-07-15 13:11:00,
2013-07-15 07:33:00,73.0,59.0,30.04,SSE,156,10.0,19.0,62,-99.99,,,-99.99,30.680000,,2013-07-15 13:33:00,
2013-07-15 07:43:00,73.0,59.0,30.04,SE,138,8.0,13.0,62,-99.99,,,-99.99,67.639999,,2013-07-15 13:43:00,
2013-07-15 08:02:00,73.0,59.0,30.05,SE,133,9.0,13.0,62,-99.99,,,-99.99,110.180000,,2013-07-15 14:02:00,
2013-07-15 08:11:00,73.0,59.0,30.06,SE,137,11.0,16.0,62,-99.99,,,-99.99,90.650002,,2013-07-15 14:11:00,
2013-07-15 08:33:00,73.0,59.0,30.06,SE,139,12.0,16.0,62,-99.99,,,-99.99,111.570000,,2013-07-15 14:33:00,
2013-07-15 08:42:00,73.0,59.0,30.06,SE,136,12.0,17.0,60,-99.99,,,-99.99,122.730003,,2013-07-15 14:42:00,
2013-07-15 09:03:00,73.0,58.0,30.06,SE,132,12.0,17.0,60,-99.99,,,-99.99,115.059998,,2013-07-15 15:03:00,
2013-07-15 09:26:00,73.0,58.0,30.06,SE,130,9.0,15.0,59,-99.99,,,-99.99,111.570000,,2013-07-15 15:26:00,
2013-07-15 09:45:00,73.0,58.0,30.06,SE,134,10.0,14.0,58,-99.99,,,-99.99,127.610001,,2013-07-15 15:45:00,
2013-07-15 09:53:00,74.0,58.0,30.06,SE,136,10.0,15.0,56,-99.99,,,-99.99,193.860001,,2013-07-15 15:53:00,
2013-07-15 10:15:00,74.0,58.0,30.06,SE,131,11.0,17.0,56,-99.99,,,-99.99,198.740005,,2013-07-15 16:15:00,
2013-07-15 10:32:00,74.0,57.0,30.06,SE,129,11.0,16.0,56,-99.99,,,-99.99,171.539993,,2013-07-15 16:32:00,
2013-07-15 10:44:00,75.0,57.0,30.07,SE,137,11.0,17.0,54,-99.99,,,-99.99,368.190002,,2013-07-15 16:44:00,
2013-07-15 10:52:00,76.0,57.0,30.07,SE,131,10.0,16.0,52,-99.99,,,-99.99,401.660004,,2013-07-15 16:52:00,
2013-07-15 11:04:00,76.0,57.0,30.07,SE,131,10.0,16.0,52,-99.99,,,-99.99,401.660004,,2013-07-15 17:04:00,
2013-07-15 11:13:00,76.0,57.0,30.07,SE,134,10.0,15.0,52,-99.99,,,-99.99,362.609985,,2013-07-15 17:13:00,
2013-07-15 11:36:00,76.0,57.0,30.07,SE,146,9.0,14.0,51,-99.99,,,-99.99,323.559998,,2013-07-15 17:36:00,
2013-07-15 11:47:00,77.0,57.0,30.07,SSE,150,9.0,14.0,51,-99.99,,,-99.99,318.679993,,2013-07-15 17:47:00,
2013-07-15 12:03:00,78.0,57.0,30.07,SSE,155,10.0,15.0,49,-99.99,,,-99.99,405.149994,,2013-07-15 18:03:00,
2013-07-15 12:15:00,78.0,57.0,30.07,SE,142,10.0,15.0,49,-99.99,,,-99.99,426.769989,,2013-07-15 18:15:00,
2013-07-15 12:26:00,79.0,57.0,30.07,SE,141,9.0,16.0,47,-99.99,,,-99.99,540.429993,,2013-07-15 18:26:00,
2013-07-15 12:35:00,79.0,57.0,30.07,SE,141,9.0,16.0,47,-99.99,,,-99.99,540.429993,,2013-07-15 18:35:00,
2013-07-15 12:45:00,79.0,57.0,30.08,SE,146,10.0,17.0,47,-99.99,,,-99.99,483.250000,,2013-07-15 18:45:00,
2013-07-15 13:05:00,79.0,57.0,30.08,SE,129,10.0,18.0,47,-99.99,,,-99.99,345.179993,,2013-07-15 19:05:00,
2013-07-15 13:11:00,77.0,57.0,30.08,ESE,115,16.0,26.0,49,-99.99,,,-99.99,266.380005,,2013-07-15 19:11:00,
2013-07-15 13:24:00,77.0,57.0,30.08,ESE,113,16.0,23.0,49,-99.99,,,-99.99,321.470001,,2013-07-15 19:24:00,
2013-07-15 13:34:00,77.0,57.0,30.08,ESE,113,16.0,23.0,49,-99.99,,,-99.99,321.470001,,2013-07-15 19:34:00,
2013-07-15 14:05:00,76.0,56.0,30.08,ESE,120,15.0,25.0,50,-99.99,,,-99.99,193.160004,,2013-07-15 20:05:00,
2013-07-15 14:15:00,76.0,56.0,30.08,SE,125,15.0,25.0,50,-99.99,,,-99.99,164.570007,,2013-07-15 20:15:00,
2013-07-15 14:26:00,75.0,56.0,30.08,ESE,108,15.0,23.0,50,-99.99,,,-99.99,283.119995,,2013-07-15 20:26:00,
2013-07-15 14:43:00,76.0,56.0,30.08,ESE,110,15.0,23.0,50,-99.99,,,-99.99,317.980011,,2013-07-15 20:43:00,
2013-07-15 15:02:00,75.0,56.0,30.08,ESE,115,14.0,21.0,51,-99.99,,,-99.99,254.529999,,2013-07-15 21:02:00,
2013-07-15 15:12:00,75.0,55.0,30.09,ESE,120,14.0,24.0,50,-99.99,,,-99.99,284.510010,,2013-07-15 21:12:00,
2013-07-15 15:23:00,74.0,54.0,30.09,ESE,121,13.0,20.0,49,-99.99,,,-99.99,225.240005,,2013-07-15 21:23:00,
2013-07-15 15:36:00,74.0,54.0,30.09,ESE,121,13.0,20.0,49,-99.99,,,-99.99,225.240005,,2013-07-15 21:36:00,
2013-07-15 15:46:00,74.0,54.0,30.08,ESE,119,14.0,21.0,49,-99.99,,,-99.99,232.910004,,2013-07-15 21:46:00,
2013-07-15 16:02:00,74.0,54.0,30.08,ESE,119,15.0,22.0,49,-99.99,,,-99.99,397.480011,,2013-07-15 22:02:00,
2013-07-15 16:16:00,74.0,55.0,30.08,ESE,121,14.0,21.0,51,-99.99,,,-99.99,374.470001,,2013-07-15 22:16:00,
2013-07-15 16:22:00,73.0,55.0,30.08,ESE,111,14.0,21.0,54,-99.99,,,-99.99,352.850006,,2013-07-15 22:22:00,
2013-07-15 16:34:00,73.0,55.0,30.08,ESE,111,14.0,21.0,54,-99.99,,,-99.99,352.850006,,2013-07-15 22:34:00,
2013-07-15 16:43:00,73.0,56.0,30.08,ESE,102,12.0,17.0,56,-99.99,,,-99.99,393.989990,,2013-07-15 22:43:00,
2013-07-15 17:04:00,72.0,56.0,30.08,ESE,118,9.0,15.0,57,-99.99,,,-99.99,276.839996,,2013-07-15 23:04:00,
2013-07-15 17:13:00,72.0,56.0,30.08,ESE,115,9.0,15.0,57,-99.99,,,-99.99,331.929993,,2013-07-15 23:13:00,
2013-07-15 17:26:00,73.0,56.0,30.07,ESE,123,7.0,14.0,56,-99.99,,,-99.99,328.440002,,2013-07-15 23:26:00,
2013-07-15 17:46:00,72.0,56.0,30.07,SE,136,7.0,11.0,57,-99.99,,,-99.99,270.570007,,2013-07-15 23:46:00,
2013-07-15 18:03:00,73.0,56.0,30.06,SE,143,7.0,12.0,56,-99.99,,,-99.99,242.669998,,2013-07-16 00:03:00,
2013-07-15 18:25:00,73.0,56.0,30.06,SSE,162,8.0,15.0,54,-99.99,,,-99.99,145.740005,,2013-07-16 00:25:00,
2013-07-15 18:33:00,73.0,56.0,30.06,SSE,162,8.0,15.0,54,-99.99,,,-99.99,145.740005,,2013-07-16 00:33:00,
2013-07-15 18:45:00,73.0,56.0,30.06,SSE,162,8.0,15.0,54,-99.99,,,-99.99,145.740005,,2013-07-16 00:45:00,
2013-07-15 19:05:00,73.0,57.0,30.06,SE,142,12.0,26.0,57,-99.99,,,-99.99,73.220001,,2013-07-16 01:05:00,
2013-07-15 19:25:00,71.0,55.0,30.08,SE,127,14.0,20.0,56,-99.99,,,-99.99,29.290001,,2013-07-16 01:25:00,
2013-07-15 19:35:00,71.0,55.0,30.08,SE,127,14.0,20.0,56,-99.99,,,-99.99,29.290001,,2013-07-16 01:35:00,
2013-07-15 19:46:00,71.0,54.0,30.08,SE,129,13.0,21.0,56,-99.99,,,-99.99,28.590000,,2013-07-16 01:46:00,
2013-07-15 20:01:00,70.0,54.0,30.08,SE,124,15.0,22.0,56,-99.99,,,-99.99,23.709999,,2013-07-16 02:01:00,
2013-07-15 20:11:00,69.0,54.0,30.09,SE,133,16.0,22.0,58,-99.99,,,-99.99,15.340000,,2013-07-16 02:11:00,
2013-07-15 20:26:00,69.0,54.0,30.10,SE,142,15.0,22.0,59,-99.99,,,-99.99,7.670000,,2013-07-16 02:26:00,
2013-07-15 20:35:00,69.0,54.0,30.10,SE,142,15.0,22.0,59,-99.99,,,-99.99,7.670000,,2013-07-16 02:35:00,
2013-07-15 20:46:00,69.0,53.0,30.10,SSE,154,13.0,21.0,57,-99.99,,,-99.99,2.090000,,2013-07-16 02:46:00,
2013-07-15 21:05:00,69.0,51.0,30.11,SSE,157,14.0,24.0,53,-99.99,,,-99.99,0.000000,,2013-07-16 03:05:00,
2013-07-15 21:14:00,69.0,50.0,30.11,SE,146,12.0,20.0,49,-99.99,,,-99.99,0.000000,,2013-07-16 03:14:00,
2013-07-15 21:26:00,70.0,50.0,30.11,SSE,155,12.0,19.0,49,-99.99,,,-99.99,0.000000,,2013-07-16 03:26:00,
2013-07-15 21:36:00,70.0,50.0,30.11,SSE,155,12.0,19.0,49,-99.99,,,-99.99,0.000000,,2013-07-16 03:36:00,
2013-07-15 22:01:00,70.0,49.0,30.12,SSE,151,11.0,18.0,47,-99.99,,,-99.99,0.000000,,2013-07-16 04:01:00,
2013-07-15 22:12:00,70.0,49.0,30.13,SSE,159,12.0,20.0,47,-99.99,,,-99.99,0.000000,,2013-07-16 04:12:00,
2013-07-15 22:22:00,70.0,49.0,30.13,SSE,153,9.0,17.0,46,-99.99,,,-99.99,0.000000,,2013-07-16 04:22:00,
2013-07-15 22:32:00,70.0,49.0,30.13,SSE,153,9.0,17.0,46,-99.99,,,-99.99,0.000000,,2013-07-16 04:32:00,
2013-07-15 22:43:00,70.0,49.0,30.14,SSE,150,11.0,19.0,47,-99.99,,,-99.99,0.000000,,2013-07-16 04:43:00,
2013-07-15 23:01:00,70.0,49.0,30.14,SSE,160,13.0,22.0,47,-99.99,,,-99.99,0.000000,,2013-07-16 05:01:00,
2013-07-15 23:11:00,70.0,49.0,30.14,SSE,152,10.0,16.0,47,-99.99,,,-99.99,0.000000,,2013-07-16 05:11:00,
2013-07-15 23:22:00,70.0,49.0,30.14,SE,145,11.0,17.0,48,-99.99,,,-99.99,0.000000,,2013-07-16 05:22:00,
2013-07-15 23:32:00,70.0,49.0,30.14,SE,145,11.0,17.0,48,-99.99,,,-99.99,0.000000,,2013-07-16 05:32:00,
2013-07-15 23:43:00,70.0,50.0,30.15,SSE,147,11.0,18.0,49,-99.99,,,-99.99,0.000000,,2013-07-16 05:43:00,